Date,TemperatureHighF,TemperatureAvgF,TemperatureLowF,DewpointHighF,DewpointAvgF,DewpointLowF,HumidityHigh,HumidityAvg,HumidityLow,PressureMaxIn,PressureMinIn,WindSpeedMaxMPH,WindSpeedAvgMPH,GustSpeedMaxMPH,PrecipitationSumIn
2013-1-1,46,34,29,33,31,26,100,89,57,0.00,40.00,2,1,7,0.17
2013-1-2,51,36,28,32,26,21,90,69,34,0.00,40.00,2,1,6,0.11
2013-1-3,57,40,33,32,26,19,81,59,30,0.00,40.00,2,1,5,0.13
2013-1-4,56,40,33,32,27,19,76,61,40,0.00,40.00,2,1,6,0.04
2013-1-5,56,43,37,32,26,19,75,53,33,0.00,40.00,3,1,10,0.04
2013-1-6,39,34,32,36,33,26,100,95,66,0.00,40.00,3,1,10,0.03
2013-1-7,46,33,28,39,32,28,100,96,75,0.00,40.00,2,1,5,0.18
2013-1-8,57,43,31,41,35,28,100,75,54,0.00,40.00,2,1,7,0.32
2013-1-9,60,48,33,38,33,26,99,57,39,0.00,40.00,4,2,17,0.01
2013-1-10,34,30,25,32,28,23,100,94,72,0.00,40.00,3,2,14,0.01
2013-1-11,37,27,20,26,22,19,98,84,54,0.00,40.00,4,2,14,0.00
2013-1-12,42,27,19,26,20,11,94,76,45,0.00,40.00,2,1,9,0.02
2013-1-13,38,27,20,25,21,17,97,78,47,0.00,40.00,3,1,9,0.01
2013-1-14,40,28,21,27,24,19,95,83,56,0.00,40.00,2,1,8,0.02
2013-1-15,46,33,25,26,23,18,98,69,39,0.00,40.00,2,1,6,0.06
2013-1-16,60,44,33,28,21,11,55,42,25,0.00,40.00,2,1,6,0.02
2013-1-17,63,47,40,28,21,13,46,35,24,0.00,40.00,2,1,6,0.02
2013-1-18,63,46,39,30,20,12,47,36,19,0.00,40.00,2,1,5,0.00
2013-1-19,66,48,39,23,19,7,47,33,14,0.00,40.00,2,1,5,0.00
2013-1-20,62,46,39,30,21,10,57,38,25,0.00,40.00,2,1,6,0.00
2013-1-21,65,48,40,23,18,10,44,31,17,0.00,40.00,2,1,6,0.00
2013-1-22,65,50,42,26,17,8,34,27,17,0.00,40.00,2,1,8,0.00
2013-1-23,62,52,44,42,24,5,91,39,15,0.00,40.00,4,1,13,0.02
2013-1-24,53,48,44,52,47,39,100,96,72,0.00,40.00,3,1,13,0.43
2013-1-25,60,49,46,55,49,46,100,98,78,0.00,40.00,2,1,6,0.09
2013-1-26,50,44,39,50,44,37,100,100,93,0.00,40.00,2,1,7,0.02
2013-1-27,43,34,30,37,32,30,100,92,66,0.00,40.00,4,2,17,0.09
2013-1-28,41,32,25,30,26,20,100,84,48,0.00,40.00,3,1,10,0.03
2013-1-29,47,35,30,35,31,26,100,87,58,0.00,40.00,2,1,8,0.01
2013-1-30,58,42,32,40,35,30,100,79,47,0.00,40.00,2,1,8,0.00
2013-1-31,61,49,37,39,35,31,85,61,39,0.00,40.00,2,1,8,0.00
2013-2-1,66,48,39,42,34,26,83,59,35,0.00,40.00,2,1,6,0.00
2013-2-2,61,49,43,38,32,24,70,53,39,0.00,40.00,2,1,3,0.00
2013-2-3,60,46,39,39,32,21,97,60,39,0.00,40.00,2,1,8,0.00
2013-2-4,64,48,39,43,36,23,100,67,46,0.00,40.00,2,1,7,0.00
2013-2-5,62,47,37,43,35,24,100,65,42,0.00,40.00,2,1,7,0.00
2013-2-6,53,39,32,40,35,25,100,85,61,0.00,40.00,3,1,7,0.00
2013-2-7,48,37,32,42,34,31,100,91,59,0.00,40.00,2,1,8,0.00
2013-2-8,36,31,27,33,30,27,100,96,80,0.00,40.00,2,1,8,0.00
2013-2-9,45,33,26,36,31,26,100,92,69,0.00,40.00,2,1,8,0.24
2013-2-10,40,35,30,33,32,29,100,90,66,0.00,40.00,2,1,7,0.01
2013-2-11,50,35,27,33,30,27,100,85,49,0.00,40.00,2,1,8,0.01
2013-2-12,54,38,30,33,31,29,100,79,43,0.00,40.00,2,1,7,0.01
2013-2-13,59,42,32,37,32,28,88,70,39,0.00,40.00,2,1,8,0.00
2013-2-14,66,47,34,36,30,20,84,54,29,0.00,40.00,2,1,7,0.00
2013-2-15,69,50,39,42,31,18,80,50,27,0.00,40.00,2,1,8,0.00
2013-2-16,66,50,40,32,26,16,61,41,26,0.00,40.00,2,1,6,0.00
2013-2-17,64,46,37,36,23,9,60,42,26,0.00,40.00,2,1,8,0.00
2013-2-18,59,44,36,39,33,28,100,67,39,0.00,40.00,3,1,10,0.00
2013-2-19,38,34,28,38,33,28,100,99,91,0.00,40.00,2,1,11,0.05
2013-2-20,45,32,24,33,30,24,100,93,63,0.00,40.00,3,1,6,0.01
2013-2-21,47,35,30,35,32,30,100,91,54,0.00,40.00,2,1,9,0.70
2013-2-22,54,38,30,40,34,30,100,88,51,0.00,40.00,2,1,8,0.04
2013-2-23,49,38,32,36,34,28,100,85,45,0.00,40.00,4,2,12,0.02
2013-2-24,54,38,29,34,29,22,99,73,33,0.00,40.00,2,1,9,0.00
2013-2-25,60,42,32,37,31,23,99,70,27,0.00,40.00,4,2,9,0.00
2013-2-26,60,41,31,38,32,24,100,74,41,0.00,40.00,2,1,8,0.00
2013-2-27,61,43,33,38,34,30,100,75,39,0.00,40.00,4,1,10,0.00
2013-2-28,66,47,36,39,33,27,81,61,31,0.00,40.00,4,2,11,0.00
2013-3-1,71,53,39,44,34,24,86,52,30,0.00,40.00,2,1,10,0.00
2013-3-2,74,56,46,35,28,22,45,35,22,0.00,40.00,2,1,12,0.00
2013-3-3,53,46,38,46,41,33,100,83,46,0.00,40.00,2,1,8,0.25
2013-3-4,64,44,33,43,39,33,100,84,44,0.00,40.00,2,1,8,0.06
2013-3-5,61,49,41,43,39,28,99,69,45,0.00,40.00,3,2,16,0.00
2013-3-6,43,38,34,42,36,28,100,93,54,0.00,40.00,3,2,15,0.78
2013-3-7,43,37,32,38,36,32,100,97,78,0.00,40.00,2,1,6,0.23
2013-3-8,52,37,32,41,35,32,100,93,65,0.00,40.00,3,1,9,0.01
2013-3-9,54,41,33,42,38,33,100,89,55,0.00,40.00,2,1,9,0.01
2013-3-10,62,45,30,41,37,28,100,76,37,0.00,40.00,3,1,10,0.01
2013-3-11,69,50,37,46,41,37,100,77,40,0.00,40.00,3,1,7,0.00
2013-3-12,77,55,41,47,43,34,100,68,32,0.00,40.00,2,1,6,0.00
2013-3-13,82,60,47,41,33,25,54,38,20,0.00,40.00,2,1,9,0.00
2013-3-14,79,61,51,42,35,25,52,38,24,0.00,40.00,2,1,7,0.00
2013-3-15,74,59,49,52,40,30,79,51,34,0.00,40.00,2,1,6,0.00
2013-3-16,74,53,43,51,41,34,96,66,29,0.00,40.00,3,2,10,0.00
2013-3-17,69,51,38,35,29,25,70,47,22,0.00,40.00,3,2,10,0.00
2013-3-18,68,52,41,40,33,24,71,50,32,0.00,40.00,3,1,8,0.00
2013-3-19,70,53,42,42,37,32,83,56,33,0.00,40.00,2,1,12,0.10
2013-3-20,59,48,43,47,43,39,100,87,51,0.00,40.00,2,1,8,0.26
2013-3-21,69,48,37,47,41,37,100,81,45,0.00,40.00,3,2,13,0.01
2013-3-22,60,46,37,43,36,23,100,72,39,0.00,40.00,3,2,11,0.00
2013-3-23,65,47,37,40,31,21,81,55,40,0.00,40.00,2,1,7,0.00
2013-3-24,68,51,39,42,37,32,82,61,38,0.00,40.00,2,1,9,0.00
2013-3-25,69,53,42,42,36,32,73,55,35,0.00,40.00,2,1,7,0.00
2013-3-26,66,52,42,40,35,28,71,53,36,0.00,40.00,3,1,9,0.00
2013-3-27,66,51,41,42,37,32,74,61,42,0.00,40.00,3,2,10,0.00
2013-3-28,64,56,44,46,44,40,91,65,50,0.00,40.00,3,2,9,0.00
2013-3-29,75,55,41,41,38,33,88,58,29,0.00,40.00,2,1,8,0.00
2013-3-30,74,58,49,44,40,34,72,51,34,0.00,40.00,3,1,10,0.00
2013-3-31,62,50,43,48,44,39,100,83,57,0.00,40.00,3,2,12,1.15
2013-4-1,60,45,40,47,42,40,100,93,59,0.00,40.00,3,1,8,0.14
2013-4-2,65,48,36,48,43,36,100,83,50,0.00,40.00,3,1,9,0.01
2013-4-3,76,55,42,52,47,38,100,78,43,0.00,40.00,3,1,8,0.00
2013-4-4,63,53,46,52,47,39,100,81,61,0.00,40.00,2,1,12,0.26
2013-4-5,67,50,39,48,42,38,100,79,50,0.00,40.00,3,2,9,0.05
2013-4-6,68,51,40,46,42,37,100,74,44,0.00,40.00,3,2,9,0.00
2013-4-7,66,51,41,44,42,35,100,73,38,0.00,40.00,3,2,19,0.00
2013-4-8,56,42,32,44,34,18,100,76,36,0.00,40.00,4,2,14,0.52
2013-4-9,66,47,32,34,26,15,61,44,27,0.00,40.00,3,2,8,0.01
2013-4-10,75,56,40,44,36,24,70,49,31,0.00,40.00,3,1,9,0.00
2013-4-11,71,57,46,48,43,36,87,61,41,0.00,40.00,3,1,12,0.00
2013-4-12,75,58,47,51,46,40,93,67,42,0.00,40.00,3,1,9,0.00
2013-4-13,74,58,47,46,42,36,77,56,34,0.00,40.00,3,1,8,0.00
2013-4-14,70,55,42,48,37,28,72,53,32,0.00,40.00,3,2,10,0.00
2013-4-15,58,45,36,41,34,29,94,70,41,0.00,40.00,3,2,15,0.00
2013-4-16,52,38,30,35,30,14,99,76,46,0.00,40.00,5,2,18,0.05
2013-4-17,62,45,32,29,19,9,49,36,24,0.00,40.00,3,2,17,0.02
2013-4-18,67,50,37,34,26,21,52,41,26,0.00,40.00,3,1,10,0.00
2013-4-19,74,55,42,42,33,26,57,44,28,0.00,40.00,4,2,10,0.00
2013-4-20,78,58,44,47,38,33,64,49,29,0.00,40.00,3,2,8,0.00
2013-4-21,81,62,48,50,42,36,73,50,32,0.00,40.00,3,1,11,0.00
2013-4-22,80,63,50,51,42,35,70,49,28,0.00,40.00,3,2,10,0.00
2013-4-23,79,63,52,49,41,35,62,46,28,0.00,40.00,3,1,12,0.00
2013-4-24,79,62,48,43,37,31,57,41,26,0.00,40.00,3,2,10,0.00
2013-4-25,74,59,49,48,40,31,73,50,37,0.00,40.00,3,1,9,0.00
2013-4-26,79,61,46,50,44,38,78,56,34,0.00,40.00,3,1,9,0.00
2013-4-27,84,66,51,52,44,38,66,48,30,0.00,40.00,3,1,10,0.00
2013-4-28,84,67,53,49,43,39,58,43,27,0.00,40.00,3,1,11,0.00
2013-4-29,84,68,55,53,44,37,52,42,30,0.00,40.00,4,2,13,0.00
2013-4-30,79,69,57,50,43,38,50,39,27,0.00,40.00,3,2,12,0.00
2013-5-1,82,65,51,43,39,35,61,40,22,0.00,40.00,3,1,9,0.00
2013-5-2,83,66,52,44,35,24,50,33,22,0.00,40.00,3,1,10,0.00
2013-5-3,86,66,53,47,37,32,45,35,21,0.00,40.00,3,1,12,0.00
2013-5-4,80,67,55,44,36,26,47,32,22,0.00,40.00,3,2,12,0.00
2013-5-5,66,57,48,41,34,23,70,44,30,0.00,40.00,3,2,15,0.00
2013-5-6,62,51,43,48,41,38,97,70,43,0.00,40.00,3,2,13,0.43
2013-5-7,56,47,42,52,46,42,100,97,87,0.00,40.00,2,1,8,0.72
2013-5-8,57,50,46,50,48,46,100,91,77,0.00,40.00,2,1,12,0.03
2013-5-9,68,55,43,54,49,43,100,83,54,0.00,40.00,2,1,6,0.01
2013-5-10,81,64,48,57,51,-100,100,69,42,0.00,40.00,2,1,7,0.00
2013-5-11,88,69,56,58,52,48,84,59,31,0.00,40.00,3,2,8,0.00
2013-5-12,89,72,59,54,46,38,59,41,23,0.00,40.00,4,2,13,0.00
2013-5-13,91,73,58,50,42,37,46,35,23,0.00,40.00,3,1,8,0.00
2013-5-14,83,69,60,50,42,35,53,39,29,0.00,40.00,3,2,14,0.00
2013-5-15,83,65,52,51,41,33,58,44,26,0.00,40.00,3,2,10,0.00
2013-5-16,64,52,49,47,25,-100,90,57,42,0.00,40.00,2,1,7,0.00
2013-5-17,70,55,43,49,38,-100,100,64,32,0.00,40.00,4,2,11,0.00
2013-5-18,76,58,44,44,37,32,66,47,27,0.00,40.00,3,2,14,0.00
2013-5-19,78,61,44,45,37,29,60,43,28,0.00,40.00,4,2,13,0.00
2013-5-20,84,66,52,45,39,29,58,40,22,0.00,40.00,3,1,8,0.00
2013-5-21,81,66,50,45,35,31,50,34,17,0.00,40.00,3,2,11,0.00
2013-5-22,68,53,40,41,30,17,60,43,24,0.00,40.00,3,2,14,0.00
2013-5-23,69,52,38,26,22,16,44,32,15,0.00,40.00,3,2,9,0.00
2013-5-24,76,58,42,32,27,20,47,32,17,0.00,40.00,3,2,9,0.00
2013-5-25,76,60,46,33,28,21,46,30,17,0.00,40.00,3,1,12,0.00
2013-5-26,74,58,44,40,33,24,62,40,25,0.00,40.00,4,2,11,0.00
2013-5-27,75,58,46,43,39,35,69,51,29,0.00,40.00,3,1,11,0.00
2013-5-28,73,59,48,55,46,40,100,66,36,0.00,40.00,5,2,17,0.03
2013-5-29,76,62,52,49,45,40,78,58,36,0.00,40.00,4,2,13,0.01
2013-5-30,82,64,49,48,42,32,78,49,26,0.00,40.00,3,2,12,0.00
2013-5-31,87,69,51,43,37,30,46,32,21,0.00,40.00,3,1,10,0.00
2013-6-1,94,76,59,47,39,32,39,29,15,0.00,40.00,3,1,9,0.00
2013-6-2,93,76,61,45,38,30,37,26,15,0.00,40.00,3,1,9,0.00
2013-6-3,90,75,62,47,42,33,45,31,23,0.00,40.00,2,1,10,0.00
2013-6-4,91,74,62,53,49,45,55,43,27,0.00,40.00,3,1,9,0.00
2013-6-5,93,75,60,54,50,47,63,45,26,0.00,40.00,3,1,8,0.00
2013-6-6,95,77,62,56,51,47,61,43,25,0.00,40.00,2,1,8,0.00
2013-6-7,101,80,63,57,52,46,55,40,23,0.00,40.00,2,1,8,0.00
2013-6-8,105,85,69,57,51,46,48,33,19,0.00,40.00,3,1,9,0.00
2013-6-9,93,80,67,58,52,41,52,39,27,0.00,40.00,3,1,9,0.00
2013-6-10,78,66,57,52,45,38,63,47,28,0.00,40.00,3,1,9,0.00
2013-6-11,89,70,55,48,42,32,56,38,19,0.00,40.00,2,1,8,0.00
2013-6-12,89,73,58,49,38,22,45,29,16,0.00,40.00,3,2,12,0.00
2013-6-13,84,66,51,35,27,19,36,24,10,0.00,40.00,3,2,15,0.00
2013-6-14,84,68,53,37,30,24,37,26,16,0.00,40.00,3,2,15,0.00
2013-6-15,88,72,54,39,28,19,37,22,11,0.00,40.00,3,2,12,0.00
2013-6-16,87,69,55,38,32,25,35,26,16,0.00,40.00,4,2,17,0.00
2013-6-17,84,66,55,44,35,31,44,33,20,0.00,40.00,4,2,12,0.00
2013-6-18,81,64,49,41,34,30,58,35,19,0.00,40.00,3,2,13,0.00
2013-6-19,77,58,42,37,32,24,69,42,22,0.00,40.00,3,2,12,0.00
2013-6-20,80,58,48,35,28,25,42,34,17,0.00,40.00,3,1,13,0.00
2013-6-22,89,77,62,38,35,32,34,23,15,0.00,40.00,3,2,14,0.00
2013-6-23,78,66,53,45,38,30,69,37,26,0.00,40.00,4,1,10,0.00
2013-6-24,65,59,52,58,51,41,97,76,60,0.00,40.00,2,1,6,0.15
2013-6-25,81,66,56,58,54,51,100,69,38,0.00,40.00,3,1,12,0.01
2013-6-26,89,72,57,57,53,51,81,56,31,0.00,40.00,3,1,12,0.00
2013-6-27,94,76,61,56,52,47,69,46,26,0.00,40.00,4,2,12,0.00
2013-6-28,99,80,69,56,51,48,52,39,24,0.00,40.00,3,2,11,0.00
2013-6-29,101,82,69,54,50,47,47,34,18,0.00,40.00,3,1,13,0.00
2013-6-30,104,84,71,59,50,46,45,34,18,0.00,40.00,3,1,8,0.00
2013-7-1,104,84,71,55,48,43,40,30,19,0.00,40.00,2,1,10,0.00
2013-7-2,98,84,74,57,50,42,37,30,22,0.00,40.00,3,1,9,0.00
2013-7-3,102,84,71,56,52,49,45,34,20,0.00,40.00,3,1,10,0.00
2013-7-4,101,84,72,59,53,49,46,36,21,0.00,40.00,3,2,9,0.00
2013-7-5,99,83,71,60,47,33,54,32,15,0.00,40.00,3,1,13,0.00
2013-7-6,96,80,66,46,39,32,30,24,16,0.00,40.00,3,1,12,0.00
2013-7-7,96,81,66,41,37,29,31,22,13,0.00,40.00,3,2,9,0.00
2013-7-8,99,76,68,36,30,23,29,20,7,0.00,40.00,3,1,12,0.00
2013-7-9,97,80,64,35,26,22,22,15,8,0.00,40.00,4,2,11,0.00
2013-7-10,97,78,67,42,30,-100,29,18,9,0.00,40.00,3,2,10,0.00
2013-7-11,95,78,66,46,34,23,33,21,12,0.00,40.00,3,1,12,0.00
2013-7-12,95,72,62,40,29,22,27,21,12,0.00,40.00,3,1,11,0.00
2013-7-13,95,77,60,35,30,27,29,20,11,0.00,40.00,3,2,12,0.00
2013-7-14,98,76,65,39,31,25,26,20,10,0.00,40.00,3,1,12,0.00
2013-7-15,94,76,65,39,33,30,28,22,13,0.00,40.00,3,1,11,0.00
2013-7-16,91,84,68,38,33,30,24,17,12,0.00,40.00,3,2,12,0.00
2013-7-17,93,72,58,40,33,28,34,26,14,0.00,40.00,3,2,10,0.00
2013-7-18,97,75,60,43,36,32,38,27,14,0.00,40.00,3,2,9,0.00
2013-7-19,100,80,66,42,38,31,31,24,13,0.00,40.00,3,1,12,0.00
2013-7-20,102,79,68,44,39,-100,35,26,13,0.00,40.00,3,1,10,0.00
2013-7-21,102,82,70,43,40,32,34,24,12,0.00,40.00,3,1,10,0.00
2013-7-22,91,78,68,54,42,34,60,29,19,0.00,40.00,3,2,8,0.00
2013-7-23,88,74,67,52,48,39,52,41,25,0.00,40.00,3,1,8,0.00
2013-7-24,97,78,66,50,45,42,46,33,17,0.00,40.00,4,2,13,0.00
2013-7-25,95,80,68,50,47,44,43,34,22,0.00,40.00,2,1,13,0.00
2013-7-26,98,79,68,53,46,40,49,34,15,0.00,40.00,3,2,12,0.00
2013-7-27,95,77,67,49,39,33,37,27,14,0.00,40.00,4,2,9,0.00
2013-7-28,97,77,66,43,37,34,37,26,12,0.00,40.00,3,1,9,0.00
2013-7-29,95,76,65,45,39,31,38,28,14,0.00,40.00,3,1,10,0.00
2013-7-30,94,72,62,41,36,31,35,28,13,0.00,40.00,4,1,12,0.00
2013-7-31,93,75,64,45,38,30,39,28,15,0.00,40.00,3,2,13,0.00
2013-8-1,90,72,60,35,28,21,35,22,9,0.00,40.00,4,2,13,0.00
2013-8-2,91,68,57,31,27,22,29,22,11,0.00,40.00,3,1,9,0.00
2013-8-3,91,71,58,33,28,26,32,22,11,0.00,40.00,3,1,10,0.00
2013-8-4,93,72,60,34,30,26,31,23,12,0.00,40.00,3,2,10,0.00
2013-8-5,94,71,60,38,31,28,31,25,12,0.00,40.00,3,1,10,0.00
2013-8-6,91,71,61,35,31,26,32,24,12,0.00,40.00,4,1,13,0.00
2013-8-7,86,69,58,42,36,32,45,30,17,0.00,40.00,3,2,10,0.00
2013-8-8,83,67,54,40,36,32,48,34,19,0.00,40.00,4,2,10,0.00
2013-8-9,86,66,53,36,33,29,46,32,16,0.00,40.00,3,1,10,0.00
2013-8-10,85,68,54,39,33,29,45,29,15,0.00,40.00,4,2,10,0.00
2013-8-11,88,67,56,38,35,30,46,33,14,0.00,40.00,4,1,11,0.00
2013-8-12,92,69,58,38,35,32,43,31,13,0.00,40.00,3,1,11,0.00
2013-8-13,98,71,59,35,30,-100,36,25,10,0.00,40.00,3,2,12,0.00
2013-8-14,95,72,62,32,25,-100,30,20,9,0.00,40.00,3,2,11,0.00
2013-8-15,94,65,64,29,11,-100,24,16,5,0.00,40.00,3,1,14,0.00
2013-8-16,97,71,62,34,22,-100,26,17,8,0.00,40.00,4,2,14,0.00
2013-8-17,96,75,64,36,32,-100,30,22,11,0.00,40.00,4,2,14,0.00
2013-8-18,93,77,66,43,37,33,30,24,15,0.00,40.00,2,1,8,0.00
2013-8-19,102,80,70,44,35,-100,32,22,14,0.00,40.00,6,2,13,0.00
2013-8-20,99,79,67,48,42,-100,39,28,17,0.00,40.00,3,1,12,0.00
2013-8-21,96,78,67,50,41,24,45,30,11,0.00,40.00,3,1,10,0.00
2013-8-22,94,79,67,39,30,25,25,18,11,0.00,40.00,3,2,13,0.00
2013-8-23,91,73,63,37,32,23,33,23,14,0.00,40.00,3,2,10,0.00
2013-8-24,89,69,59,39,33,-100,39,28,13,0.00,40.00,4,2,14,0.00
2013-8-25,90,71,60,40,36,32,39,30,16,0.00,40.00,3,2,12,0.00
2013-8-26,91,72,62,41,38,33,43,30,15,0.00,40.00,3,1,10,0.00
2013-8-27,90,67,60,41,39,36,43,37,18,0.00,40.00,3,1,9,0.00
2013-8-28,93,82,67,49,43,38,34,26,17,0.00,40.00,3,2,12,0.00
2013-8-29,97,76,63,48,41,35,45,30,16,0.00,40.00,3,2,11,0.00
2013-8-30,99,75,64,47,38,34,38,28,16,0.00,40.00,4,1,13,0.00
2013-8-31,88,75,68,43,37,-100,37,26,18,0.00,40.00,3,1,7,0.00
2013-9-1,92,74,65,49,44,40,50,35,19,0.00,40.00,3,1,9,0.00
2013-9-2,91,73,64,52,50,47,60,45,25,0.00,40.00,3,2,15,0.00
2013-9-3,90,73,64,54,50,45,61,46,27,0.00,40.00,3,1,10,0.00
2013-9-4,91,73,65,52,48,46,52,43,23,0.00,40.00,3,1,11,0.00
2013-9-5,91,73,63,51,46,42,54,41,22,0.00,40.00,3,1,10,0.00
2013-9-6,94,72,60,48,44,41,54,38,19,0.00,40.00,3,1,10,0.00
2013-9-7,96,75,62,44,37,-100,41,28,14,0.00,40.00,3,1,11,0.00
2013-9-8,97,77,63,41,34,26,31,23,11,0.00,40.00,4,2,13,0.00
2013-9-9,92,72,65,40,35,30,33,27,11,0.00,40.00,4,1,13,0.00
2013-9-10,93,75,64,40,35,32,30,24,14,0.00,40.00,3,1,12,0.00
2013-9-11,87,71,64,42,38,34,42,30,17,0.00,40.00,2,1,8,0.00
2013-9-12,87,68,61,44,41,38,47,38,19,0.00,40.00,3,1,8,0.00
2013-9-13,91,70,61,47,43,40,48,39,20,0.00,40.00,3,1,10,0.00
2013-9-14,93,72,62,48,44,-100,53,38,20,0.00,40.00,3,1,9,0.00
2013-9-15,93,75,64,48,41,33,47,32,14,0.00,40.00,3,2,14,0.00
2013-9-16,92,73,62,42,38,35,43,30,15,0.00,40.00,3,2,11,0.00
2013-9-17,83,66,54,42,38,31,52,38,21,0.00,40.00,3,2,12,0.00
2013-9-18,59,54,51,32,31,29,48,43,35,0.00,40.00,1,1,4,0.00
2013-9-19,89,61,54,37,31,22,44,34,14,0.00,40.00,3,1,9,0.00
2013-9-20,87,72,57,39,31,18,50,25,13,0.00,40.00,3,2,11,0.00
2013-9-21,68,54,42,55,40,-100,100,66,34,0.00,40.00,4,2,15,0.60
2013-9-22,70,50,37,48,42,37,100,81,36,0.00,40.00,3,2,9,0.06
2013-9-23,82,58,46,51,46,43,100,70,27,0.00,40.00,3,1,7,0.00
2013-9-24,82,63,52,46,41,36,67,48,25,0.00,40.00,3,2,11,0.00
2013-9-25,66,52,42,41,37,29,94,60,34,0.00,40.00,3,2,12,0.00
2013-9-26,66,48,39,35,29,23,76,51,22,0.00,40.00,3,2,13,0.00
2013-9-27,75,51,40,29,26,22,54,40,17,0.00,40.00,2,1,9,0.00
2013-9-28,83,59,47,31,24,-100,47,30,11,0.00,40.00,3,1,11,0.00
2013-9-29,84,62,52,32,26,21,37,26,13,0.00,40.00,3,1,9,0.00
2013-9-30,79,64,52,40,33,28,49,33,19,0.00,40.00,3,2,10,0.00
2013-10-1,74,61,55,44,42,40,59,50,34,0.00,40.00,2,1,8,0.00
2013-10-2,77,59,50,46,38,28,70,49,20,0.00,40.00,3,2,10,0.00
2013-10-3,72,54,46,30,25,17,47,34,18,0.00,40.00,3,1,11,0.00
2013-10-4,75,57,44,25,22,18,36,26,14,0.00,40.00,3,2,10,0.00
2013-10-5,81,56,46,21,17,13,33,23,8,0.00,40.00,2,1,10,0.00
2013-10-6,85,61,52,21,18,13,25,20,7,0.00,40.00,2,1,7,0.00
2013-10-7,80,59,52,21,16,12,24,19,9,0.00,40.00,2,1,9,0.00
2013-10-8,79,55,50,23,18,13,31,24,9,0.00,40.00,2,1,7,0.00
2013-10-9,52,46,40,43,34,21,100,68,30,0.00,40.00,2,1,6,0.21
2013-10-10,61,48,38,47,39,34,100,76,40,0.00,40.00,3,1,8,0.01
2013-10-11,73,52,42,40,36,33,83,58,26,0.00,40.00,3,1,9,0.00
2013-10-12,74,54,46,38,32,-100,66,47,22,0.00,40.00,3,1,10,0.00
2013-10-13,67,52,44,36,32,30,62,49,27,0.00,40.00,3,2,10,0.00
2013-10-14,74,54,43,35,32,30,66,47,21,0.00,40.00,3,1,8,0.00
2013-10-15,75,56,46,34,31,28,53,40,21,0.00,40.00,3,1,10,0.00
2013-10-16,76,56,47,30,24,20,48,32,14,0.00,40.00,3,1,10,0.00
2013-10-17,77,58,48,28,25,23,38,30,15,0.00,40.00,2,1,11,0.00
2013-10-18,83,59,50,28,22,12,37,26,9,0.00,40.00,2,1,11,0.00
2013-10-19,82,59,51,21,14,-100,26,18,9,0.00,40.00,3,1,9,0.00
2013-10-20,79,59,49,21,17,11,26,20,10,0.00,40.00,2,1,8,0.00
2013-10-21,82,64,51,26,20,11,26,19,10,0.00,40.00,2,1,8,0.00
2013-10-22,81,58,53,17,11,8,18,15,7,0.00,40.00,3,1,8,0.00
2013-10-23,83,61,52,28,18,12,31,20,8,0.00,40.00,2,1,8,0.00
2013-10-24,78,61,50,29,25,18,35,26,15,0.00,40.00,3,1,8,0.00
2013-10-25,80,60,51,34,30,23,44,34,18,0.00,40.00,3,1,8,0.00
2013-10-26,81,61,52,34,27,-100,49,30,13,0.00,40.00,2,1,10,0.00
2013-10-27,74,59,41,36,28,16,81,33,18,0.00,40.00,3,2,10,0.00
2013-10-28,42,38,35,42,37,-100,100,98,87,0.00,40.00,2,1,17,0.82
2013-10-29,53,42,34,44,38,34,100,88,57,0.00,40.00,2,1,7,0.01
2013-10-30,60,43,33,39,36,33,100,79,44,0.00,40.00,3,1,8,0.00
2013-10-31,67,50,39,39,36,32,92,63,33,0.00,40.00,2,1,8,0.00
2013-11-1,76,54,45,35,25,20,60,35,13,0.00,40.00,2,1,9,0.00
2013-11-2,75,54,47,30,23,-100,43,32,16,0.00,40.00,2,1,10,0.00
2013-11-3,64,49,42,32,27,22,54,42,29,0.00,40.00,2,1,7,0.00
2013-11-4,57,44,37,37,28,22,74,54,39,0.00,40.00,3,1,8,0.00
2013-11-5,60,44,36,28,25,22,58,48,30,0.00,40.00,2,1,9,0.00
2013-11-6,69,51,42,26,22,15,52,35,14,0.00,40.00,2,1,8,0.00
2013-11-7,75,56,49,27,18,14,29,24,13,0.00,40.00,2,1,8,0.00
2013-11-8,74,55,46,23,20,13,31,26,15,0.00,40.00,2,1,6,0.00
2013-11-9,73,56,48,26,23,18,35,29,17,0.00,40.00,2,1,8,0.00
2013-11-10,73,59,49,21,14,5,31,19,10,0.00,40.00,2,1,10,0.00
2013-11-11,75,61,49,17,12,3,21,15,9,0.00,40.00,2,1,6,0.00
2013-11-12,72,59,52,27,21,11,32,23,15,0.00,40.00,2,1,8,0.00
2013-11-13,73,55,49,34,29,24,53,38,22,0.00,40.00,2,1,6,0.00
2013-11-14,70,55,45,35,33,28,62,44,23,0.00,40.00,2,1,5,0.00
2013-11-15,61,48,41,38,34,32,73,60,39,0.00,40.00,2,1,8,0.00
2013-11-16,60,44,39,39,33,-100,88,67,43,0.00,40.00,2,1,8,0.00
2013-11-17,61,46,37,38,34,30,85,65,36,0.00,40.00,2,1,8,0.00
2013-11-18,59,48,42,34,33,31,72,56,37,0.00,40.00,2,1,9,0.00
2013-11-19,61,48,42,43,36,32,97,64,41,0.00,40.00,2,1,6,0.02
2013-11-20,58,47,42,51,46,42,100,95,69,0.00,40.00,2,1,8,0.51
2013-11-21,50,44,38,46,43,37,100,98,84,0.00,40.00,2,1,6,0.73
2013-11-22,52,41,35,45,39,35,100,94,67,0.00,40.00,2,1,5,0.02
2013-11-23,55,42,34,38,36,34,100,81,49,0.00,40.00,2,1,7,0.00
2013-11-24,55,41,34,38,36,34,100,84,46,0.00,40.00,2,1,7,0.00
2013-11-25,60,44,35,40,38,35,100,81,45,0.00,40.00,2,1,6,0.00
2013-11-26,64,49,41,38,32,23,86,55,34,0.00,40.00,2,1,9,0.00
2013-11-27,64,51,44,29,24,21,43,36,24,0.00,40.00,2,1,7,0.00
2013-11-28,60,48,43,34,30,24,59,50,37,0.00,40.00,2,1,8,0.00
2013-11-29,60,46,39,34,30,26,64,54,35,0.00,40.00,2,1,9,0.00
2013-11-30,61,46,39,35,30,-100,71,57,37,0.00,40.00,3,1,7,0.00
2013-12-1,63,48,41,36,33,28,71,57,35,0.00,40.00,2,1,6,0.00
2013-12-2,68,51,44,36,30,18,63,47,16,0.00,40.00,3,1,8,0.00
2013-12-3,46,39,29,42,35,24,100,88,41,0.00,40.00,2,1,7,0.46
2013-12-4,37,29,25,34,29,25,100,99,89,0.00,40.00,2,1,8,0.01
2013-12-5,34,28,21,28,25,20,100,90,64,0.00,40.00,3,1,14,0.01
2013-12-6,38,29,22,27,24,22,99,81,57,0.00,40.00,2,1,9,0.01
2013-12-7,34,28,18,31,25,-100,100,92,73,0.00,40.00,3,1,11,0.01
2013-12-8,37,23,16,29,21,15,100,91,63,0.00,40.00,1,1,5,0.00
2013-12-9,44,28,20,28,22,18,100,83,44,0.00,40.00,1,1,6,0.00
2013-12-10,54,37,27,24,20,13,78,51,30,0.00,40.00,2,1,5,0.03
2013-12-11,62,42,36,13,10,7,34,27,13,0.00,40.00,2,1,8,0.20
2013-12-12,62,44,36,19,13,6,41,30,14,0.00,40.00,2,1,6,0.20
2013-12-13,56,41,34,25,17,8,65,39,21,0.00,40.00,2,1,6,0.11
2013-12-14,62,44,34,25,17,-100,66,37,18,0.00,40.00,2,1,7,0.04
2013-12-15,67,51,41,25,18,8,39,27,17,0.00,40.00,2,1,7,0.02
2013-12-16,75,56,48,26,19,12,29,23,12,0.00,40.00,2,1,5,0.00
2013-12-17,72,58,51,27,21,15,27,24,16,0.00,40.00,2,1,6,0.00
2013-12-18,67,55,45,32,26,16,59,34,20,0.00,40.00,3,1,7,0.00
2013-12-19,46,40,33,38,34,29,100,82,63,0.00,40.00,2,1,7,0.00
2013-12-20,46,37,32,38,35,32,100,93,67,0.00,40.00,2,1,7,0.00
2013-12-21,50,37,32,39,32,-100,100,85,63,0.00,40.00,2,1,8,0.00
2013-12-22,59,44,35,34,30,23,83,60,39,0.00,40.00,2,1,7,0.00
2013-12-23,63,48,41,31,28,24,59,46,27,0.00,40.00,2,1,9,0.00
2013-12-24,64,49,43,33,28,22,59,46,31,0.00,40.00,2,1,5,0.00
2013-12-25,65,52,44,25,19,7,37,28,20,0.00,40.00,2,1,5,0.00
2013-12-26,68,52,43,24,16,8,32,24,17,0.00,40.00,2,1,6,0.00
2013-12-27,68,53,44,27,14,0,35,21,13,0.00,40.00,2,1,7,0.00
2013-12-28,62,49,43,25,11,-100,43,23,11,0.00,40.00,2,1,6,0.00
2013-12-29,61,48,41,20,13,4,38,25,16,0.00,40.00,2,1,9,0.00
2013-12-30,63,51,44,14,10,1,24,19,12,0.00,40.00,2,1,7,0.00
2013-12-31,62,51,44,19,14,2,32,23,14,0.00,40.00,1,1,5,0.00
2014-1-1,64,50,43,22,18,14,33,28,19,0.00,40.00,1,1,5,0.00
2014-1-2,69,52,45,24,18,11,32,26,16,0.00,40.00,1,1,5,0.00